Time;durP1;ratioP1;P1;durP2;ratioP2;P2;SDS_P1;SDS_P2;PMS_P1;PMS_P2;Temp;Humidity;BMP_temperature;BMP_pressure;BME280_temperature;BME280_humidity;BME280_pressure;Samples;Min_cycle;Max_cycle;Signal;HPM_P1;HPM_P2
2023/04/06 00:01:21;;;;;;;19.60;10.13;;;;;;;-145.18;100.00;47572.72;6154907;23;20016;-66
2023/04/06 00:03:47;;;;;;;18.40;11.10;;;;;;;-145.18;100.00;47537.53;6181596;23;20028;-67
2023/04/06 00:06:12;;;;;;;17.37;10.37;;;;;;;-145.18;100.00;47578.56;6181313;23;20008;-66
2023/04/06 00:08:38;;;;;;;17.07;9.60;;;;;;;-145.18;100.00;47568.81;6155823;23;20017;-67
2023/04/06 00:11:03;;;;;;;21.57;10.67;;;;;;;-145.18;100.00;47574.66;6181457;23;20331;-66
2023/04/06 00:13:28;;;;;;;19.33;11.67;;;;;;;-145.18;100.00;47549.25;6181864;23;20427;-67
2023/04/06 00:15:54;;;;;;;16.77;10.67;;;;;;;-145.18;100.00;47566.84;6181794;23;20197;-67
2023/04/06 00:18:19;;;;;;;21.70;11.00;;;;;;;-145.18;100.00;47553.16;6154712;23;20169;-66
2023/04/06 00:20:45;;;;;;;18.00;11.00;;;;;;;-145.18;100.00;47584.44;6182000;23;20096;-66
2023/04/06 00:23:10;;;;;;;16.63;10.20;;;;;;;-145.18;100.00;47564.91;6181501;23;20490;-67
2023/04/06 00:25:35;;;;;;;18.40;10.67;;;;;;;-145.18;100.00;47553.16;6181918;23;20025;-67
2023/04/06 00:28:01;;;;;;;18.83;10.73;;;;;;;-145.18;100.00;47572.72;6181741;23;20068;-67
2023/04/06 00:30:26;;;;;;;18.90;11.23;;;;;;;-145.18;100.00;47572.72;6181473;23;20015;-66
2023/04/06 00:32:52;;;;;;;23.03;10.93;;;;;;;-145.18;100.00;47555.13;6181430;23;20383;-67
2023/04/06 00:47:09;;;;;;;17.08;10.88;;;;;;;-145.18;100.00;47551.22;6180986;23;20013;-66
2023/04/06 00:52:38;;;;;;;21.93;12.07;;;;;;;-145.18;100.00;47568.81;6088099;23;20261;-67
2023/04/06 00:55:04;;;;;;;21.60;11.03;;;;;;;-145.18;100.00;47559.03;6090253;23;20548;-67
2023/04/06 00:57:30;;;;;;;22.37;11.20;;;;;;;-145.18;100.00;47566.84;6089540;23;20015;-67
2023/04/06 00:59:56;;;;;;;20.30;9.90;;;;;;;-145.18;100.00;47557.06;6066072;23;20237;-66
2023/04/06 01:02:21;;;;;;;20.63;10.40;;;;;;;-145.18;100.00;47561.00;6066054;23;20673;-66
2023/04/06 01:04:47;;;;;;;37.77;12.33;;;;;;;-145.18;100.00;47564.91;6089970;23;20018;-67
2023/04/06 01:07:12;;;;;;;24.50;10.73;;;;;;;-145.18;100.00;47557.06;6089874;23;20093;-67
2023/04/06 01:09:40;;;;;;;26.20;10.57;;;;;;;-145.18;100.00;47562.94;6089640;23;20352;-66
2023/04/06 01:12:06;;;;;;;23.90;9.93;;;;;;;-145.18;100.00;47559.03;6090013;23;20581;-66
2023/04/06 01:14:31;;;;;;;21.67;9.70;;;;;;;-145.18;100.00;47553.16;6089883;23;20233;-66
2023/04/06 01:16:59;;;;;;;21.13;11.00;;;;;;;-145.18;100.00;47545.34;6091311;23;20021;-66
2023/04/06 01:19:25;;;;;;;20.50;10.30;;;;;;;-145.18;100.00;47547.31;6091601;23;20009;-67
2023/04/06 01:21:52;;;;;;;18.60;10.40;;;;;;;-145.18;100.00;47562.94;6091498;23;20293;-67
2023/04/06 01:24:18;;;;;;;48.70;10.03;;;;;;;-145.18;100.00;47570.75;6140089;23;20071;-67
2023/04/06 01:26:45;;;;;;;36.20;9.33;;;;;;;-145.18;100.00;47555.13;6152862;23;20848;-67
2023/04/06 01:29:10;;;;;;;21.47;8.33;;;;;;;-145.18;100.00;47553.16;6153703;23;20005;-67
2023/04/06 01:31:36;;;;;;;18.33;7.20;;;;;;;-145.18;100.00;47559.03;6153109;23;20383;-67
2023/04/06 01:34:01;;;;;;;13.37;7.17;;;;;;;-145.18;100.00;47566.84;6153397;23;20013;-67
2023/04/06 01:36:27;;;;;;;12.97;7.80;;;;;;;-145.18;100.00;47568.81;6152958;23;20009;-67
2023/04/06 01:38:52;;;;;;;19.43;8.07;;;;;;;-145.18;100.00;47586.38;6153423;23;20009;-67
2023/04/06 01:41:18;;;;;;;14.23;7.80;;;;;;;-145.18;100.00;47557.06;6153773;23;20005;-66
2023/04/06 01:43:44;;;;;;;14.40;7.43;;;;;;;-145.18;100.00;47574.66;6153076;23;20064;-67
2023/04/06 01:46:10;;;;;;;19.90;7.03;;;;;;;-145.18;100.00;47588.34;6153290;23;20084;-66
2023/04/06 01:48:36;;;;;;;12.90;7.10;;;;;;;-145.18;100.00;47574.66;6152883;23;20262;-67
2023/04/06 01:51:01;;;;;;;13.53;7.23;;;;;;;-145.18;100.00;47582.47;6153624;23;20013;-66
2023/04/06 01:53:27;;;;;;;16.50;6.83;;;;;;;-145.18;100.00;47580.53;6151238;23;20247;-67
2023/04/06 01:55:52;;;;;;;15.27;6.77;;;;;;;-145.18;100.00;47584.44;6152826;23;20013;-67
2023/04/06 01:58:17;;;;;;;14.17;7.00;;;;;;;-145.18;100.00;47578.56;6153219;23;20451;-67
2023/04/06 02:03:18;;;;;;;18.27;7.50;;;;;;;-145.18;100.00;47590.28;6168548;23;20389;-69
2023/04/06 02:05:44;;;;;;;11.97;6.80;;;;;;;-145.18;100.00;47592.25;6182671;23;20079;-69
2023/04/06 02:08:09;;;;;;;17.10;7.20;;;;;;;-145.18;100.00;47602.00;6182738;23;20009;-69
2023/04/06 02:10:34;;;;;;;12.87;6.87;;;;;;;-145.18;100.00;47588.34;6183619;23;20036;-69
2023/04/06 02:13:00;;;;;;;13.83;6.30;;;;;;;-145.18;100.00;47582.47;6182635;23;20013;-69
2023/04/06 02:15:26;;;;;;;13.50;6.03;;;;;;;-145.18;100.00;47598.09;6183824;23;20435;-69
2023/04/06 02:17:52;;;;;;;15.50;7.50;;;;;;;-145.18;100.00;47600.06;6182702;23;20008;-69
2023/04/06 02:20:17;;;;;;;10.97;6.17;;;;;;;-145.18;100.00;47572.72;6183741;23;20255;-69
2023/04/06 02:22:43;;;;;;;13.13;6.63;;;;;;;-145.18;100.00;47570.75;6182985;23;20092;-69
2023/04/06 02:25:09;;;;;;;15.00;7.13;;;;;;;-145.18;100.00;47613.75;6183585;23;20006;-69
2023/04/06 02:27:35;;;;;;;13.40;6.50;;;;;;;-145.18;100.00;47594.19;6182736;23;20088;-69
2023/04/06 02:30:02;;;;;;;13.70;7.43;;;;;;;-145.18;100.00;47607.88;6183215;23;20015;-69
2023/04/06 02:32:27;;;;;;;13.77;6.97;;;;;;;-145.18;100.00;47590.28;6156710;23;20247;-69
2023/04/06 02:34:52;;;;;;;20.73;7.40;;;;;;;-145.18;100.00;47590.28;6182920;23;20254;-69
2023/04/06 02:37:18;;;;;;;12.17;6.67;;;;;;;-145.18;100.00;47609.84;6182949;23;20013;-69
2023/04/06 02:39:43;;;;;;;14.83;7.20;;;;;;;-145.18;100.00;47615.69;6182715;23;20065;-69
2023/04/06 02:42:08;;;;;;;14.27;6.90;;;;;;;-145.18;100.00;47605.94;6183049;23;20035;-69
2023/04/06 02:44:34;;;;;;;14.33;6.83;;;;;;;-145.18;100.00;47598.09;6183074;23;20047;-69
2023/04/06 02:47:00;;;;;;;14.30;6.87;;;;;;;-145.18;100.00;47590.28;6183420;23;20383;-69
2023/04/06 02:49:25;;;;;;;12.07;6.73;;;;;;;-145.18;100.00;47633.28;6182886;23;20427;-69
2023/04/06 02:51:50;;;;;;;16.43;7.63;;;;;;;-145.18;100.00;47629.38;6182368;23;20381;-69
2023/04/06 02:54:16;;;;;;;13.83;7.20;;;;;;;-145.18;100.00;47598.09;6182828;23;20495;-70
2023/04/06 02:56:41;;;;;;;13.67;6.73;;;;;;;-145.18;100.00;47617.66;6182904;23;20013;-69
2023/04/06 02:59:07;;;;;;;13.40;7.13;;;;;;;-145.18;100.00;47623.50;6182514;23;20399;-69
2023/04/06 03:01:32;;;;;;;13.63;8.33;;;;;;;-145.18;100.00;47623.50;6182719;23;20070;-69
2023/04/06 03:03:57;;;;;;;15.83;7.70;;;;;;;-145.18;100.00;47623.50;6181855;23;20044;-69
2023/04/06 03:06:23;;;;;;;17.13;7.80;;;;;;;-145.18;100.00;47613.75;6182672;23;20011;-71
2023/04/06 03:08:48;;;;;;;17.20;7.80;;;;;;;-145.18;100.00;47613.75;6182397;23;20426;-69
2023/04/06 03:11:13;;;;;;;15.77;7.47;;;;;;;-145.18;100.00;47648.91;6182587;23;20016;-69
2023/04/06 03:13:39;;;;;;;19.93;7.60;;;;;;;-145.18;100.00;47635.22;6182406;23;20346;-69
2023/04/06 03:16:05;;;;;;;18.10;7.27;;;;;;;-145.18;100.00;47648.91;6182497;23;20024;-69
2023/04/06 03:18:31;;;;;;;16.13;8.20;;;;;;;-145.18;100.00;47629.38;6181263;23;20009;-69
2023/04/06 03:20:57;;;;;;;14.03;7.60;;;;;;;-145.18;100.00;47623.50;6182052;23;20613;-69
2023/04/06 03:23:22;;;;;;;15.53;7.87;;;;;;;-145.18;100.00;47643.03;6182018;23;20306;-69
2023/04/06 03:25:48;;;;;;;18.13;7.87;;;;;;;-145.18;100.00;47656.72;6182316;23;20101;-69
2023/04/06 03:28:14;;;;;;;15.57;8.17;;;;;;;-145.18;100.00;47641.09;6180688;23;20076;-69
2023/04/06 03:30:39;;;;;;;16.87;7.63;;;;;;;-145.18;100.00;47645.00;6152915;23;20019;-69
2023/04/06 03:33:05;;;;;;;14.53;7.63;;;;;;;-145.18;100.00;47648.91;6155452;23;20089;-69
2023/04/06 03:35:30;;;;;;;16.33;7.90;;;;;;;-145.18;100.00;47639.13;6182169;23;20099;-69
2023/04/06 03:37:56;;;;;;;16.07;7.90;;;;;;;-145.18;100.00;47629.38;6181790;23;20005;-69
2023/04/06 03:40:21;;;;;;;16.70;7.73;;;;;;;-145.18;100.00;47646.97;6181577;23;20020;-69
2023/04/06 03:42:46;;;;;;;20.07;9.10;;;;;;;-145.18;100.00;47635.22;6181451;23;20135;-69
2023/04/06 03:45:15;;;;;;;18.97;9.47;;;;;;;-145.18;100.00;47654.78;6155920;23;20027;-69
2023/04/06 03:47:40;;;;;;;15.00;8.00;;;;;;;-145.18;100.00;47664.53;6181517;23;20009;-69
2023/04/06 03:50:06;;;;;;;17.27;9.00;;;;;;;-145.18;100.00;47645.00;6181592;23;20250;-69
2023/04/06 03:52:32;;;;;;;17.03;7.97;;;;;;;-145.18;100.00;47652.81;6181767;23;20726;-69
2023/04/06 03:54:57;;;;;;;17.53;8.30;;;;;;;-145.18;100.00;47645.00;6181857;23;20079;-69
2023/04/06 03:57:22;;;;;;;19.73;8.93;;;;;;;-145.18;100.00;47633.28;6181299;23;20036;-69
2023/04/06 03:59:48;;;;;;;18.63;8.93;;;;;;;-145.18;100.00;47656.72;6181500;23;20017;-69
2023/04/06 04:02:13;;;;;;;20.10;8.70;;;;;;;-145.18;100.00;47625.47;6181142;23;20017;-69
2023/04/06 04:04:39;;;;;;;17.20;8.57;;;;;;;-145.18;100.00;47631.31;6181635;23;20031;-69
2023/04/06 04:07:04;;;;;;;14.27;7.43;;;;;;;-145.18;100.00;47635.22;6181703;23;20005;-69
2023/04/06 04:09:31;;;;;;;14.47;7.87;;;;;;;-145.18;100.00;47635.22;6181989;23;20029;-69
2023/04/06 04:11:56;;;;;;;16.60;8.57;;;;;;;-145.18;100.00;47623.50;6181648;23;20231;-69
2023/04/06 04:14:22;;;;;;;20.80;9.43;;;;;;;-145.18;100.00;47633.28;6181470;23;20445;-69
2023/04/06 04:16:47;;;;;;;15.53;8.07;;;;;;;-145.18;100.00;47652.81;6181325;23;20084;-69
2023/04/06 04:19:13;;;;;;;16.93;8.60;;;;;;;-145.18;100.00;47646.97;6181902;23;20131;-69
2023/04/06 04:21:46;;;;;;;18.23;8.60;;;;;;;-145.18;100.00;47648.91;6181819;23;20342;-69
2023/04/06 04:24:11;;;;;;;15.33;7.83;;;;;;;-145.18;100.00;47660.63;6181472;23;20044;-69
2023/04/06 04:26:38;;;;;;;19.93;8.07;;;;;;;-145.18;100.00;47633.28;6181635;23;20696;-69
2023/04/06 04:29:03;;;;;;;15.63;8.00;;;;;;;-145.18;100.00;47648.91;6181295;23;20035;-69
2023/04/06 04:31:29;;;;;;;16.10;7.83;;;;;;;-145.18;100.00;47648.91;6181676;23;20227;-69
2023/04/06 04:33:55;;;;;;;20.03;8.20;;;;;;;-145.18;100.00;47639.13;6181153;23;20013;-69
2023/04/06 04:36:20;;;;;;;15.57;7.97;;;;;;;-145.18;100.00;47627.41;6181747;23;20005;-69
2023/04/06 04:38:46;;;;;;;21.80;8.23;;;;;;;-145.18;100.00;47656.72;6154535;23;20084;-69
2023/04/06 04:41:11;;;;;;;16.40;8.30;;;;;;;-145.18;100.00;47662.59;6182057;23;20005;-69
2023/04/06 04:43:36;;;;;;;19.03;8.27;;;;;;;-145.18;100.00;47631.31;6181773;23;20036;-69
2023/04/06 04:46:03;;;;;;;16.87;7.77;;;;;;;-145.18;100.00;47645.00;6181275;23;20426;-69
2023/04/06 04:48:29;;;;;;;16.43;8.47;;;;;;;-145.18;100.00;47637.19;6181908;23;20009;-69
2023/04/06 04:50:55;;;;;;;19.20;7.63;;;;;;;-145.18;100.00;47643.03;6182345;23;20549;-69
2023/04/06 04:53:20;;;;;;;17.80;9.00;;;;;;;-145.18;100.00;47646.97;6183489;23;20060;-69
2023/04/06 04:55:45;;;;;;;21.13;9.20;;;;;;;-145.18;100.00;47639.13;6183685;23;20009;-69
2023/04/06 04:58:15;;;;;;;17.67;8.20;;;;;;;-145.18;100.00;47629.38;6183541;23;20009;-69
2023/04/06 05:00:40;;;;;;;17.30;8.27;;;;;;;-145.18;100.00;47629.38;6183569;23;20350;-68
2023/04/06 05:03:06;;;;;;;18.43;8.07;;;;;;;-145.18;100.00;47621.56;6183246;23;20251;-69
2023/04/06 05:05:31;;;;;;;20.63;8.73;;;;;;;-145.18;100.00;47613.75;6183647;23;20657;-69
2023/04/06 05:07:57;;;;;;;13.90;7.83;;;;;;;-145.18;100.00;47633.28;6183198;23;20084;-69
2023/04/06 05:10:22;;;;;;;18.70;8.77;;;;;;;-145.18;100.00;47643.03;6183521;23;20005;-69
2023/04/06 05:12:48;;;;;;;17.63;7.80;;;;;;;-145.18;100.00;47621.56;6182897;23;20067;-69
2023/04/06 05:15:13;;;;;;;25.13;8.33;;;;;;;-145.18;100.00;47635.22;6183653;23;20060;-69
2023/04/06 05:17:39;;;;;;;17.77;8.33;;;;;;;-145.18;100.00;47623.50;6183405;23;20012;-69
2023/04/06 05:20:05;;;;;;;17.17;8.37;;;;;;;-145.18;100.00;47637.19;6174430;23;20465;-69
2023/04/06 05:22:31;;;;;;;15.27;7.73;;;;;;;-145.18;100.00;47623.50;6156153;23;20466;-69
2023/04/06 05:24:56;;;;;;;20.67;8.97;;;;;;;-145.18;100.00;47637.19;6183204;23;20238;-69
2023/04/06 05:27:22;;;;;;;19.80;8.73;;;;;;;-145.18;100.00;47621.56;6183334;23;20009;-69
2023/04/06 05:29:47;;;;;;;21.07;8.30;;;;;;;-145.18;100.00;47617.66;6182817;23;20560;-69
2023/04/06 05:32:13;;;;;;;19.37;8.13;;;;;;;-145.18;100.00;47635.22;6183468;23;20048;-69
2023/04/06 05:34:38;;;;;;;20.00;8.43;;;;;;;-145.18;100.00;47605.94;6175324;23;20013;-69
2023/04/06 05:37:04;;;;;;;13.80;7.10;;;;;;;-145.18;100.00;47629.38;6182841;23;20032;-69
2023/04/06 05:39:29;;;;;;;19.13;8.20;;;;;;;-145.18;100.00;47611.78;6156332;23;20519;-69
2023/04/06 05:41:55;;;;;;;18.73;7.87;;;;;;;-145.18;100.00;47607.88;6182861;23;20016;-69
2023/04/06 05:44:20;;;;;;;20.37;8.80;;;;;;;-145.18;100.00;47621.56;6182703;23;20016;-69
2023/04/06 05:46:46;;;;;;;15.63;7.50;;;;;;;-145.18;100.00;47611.78;6182780;23;20013;-69
2023/04/06 05:49:12;;;;;;;16.90;8.40;;;;;;;-145.18;100.00;47613.75;6183182;23;20009;-69
2023/04/06 05:51:37;;;;;;;18.13;8.77;;;;;;;-145.18;100.00;47617.66;6183285;23;20009;-68
2023/04/06 05:54:03;;;;;;;20.03;8.53;;;;;;;-145.18;100.00;47627.41;6182217;23;20253;-69
2023/04/06 05:56:30;;;;;;;17.93;8.00;;;;;;;-145.18;100.00;47607.88;6182166;23;20024;-69
2023/04/06 05:58:55;;;;;;;18.33;8.47;;;;;;;-145.18;100.00;47619.59;6179698;23;20020;-69
2023/04/06 06:01:20;;;;;;;21.67;9.77;;;;;;;-145.18;100.00;47635.22;6179887;23;20239;-69
2023/04/06 06:03:46;;;;;;;18.20;8.67;;;;;;;-145.18;100.00;47625.47;6180412;23;20013;-69
2023/04/06 06:06:11;;;;;;;19.33;8.57;;;;;;;-145.18;100.00;47605.94;6180921;23;20031;-69
2023/04/06 06:08:37;;;;;;;15.77;8.63;;;;;;;-145.18;100.00;47613.75;6181404;23;20015;-69
2023/04/06 06:11:02;;;;;;;19.57;7.97;;;;;;;-145.18;100.00;47631.31;6181526;23;20002;-69
2023/04/06 06:13:28;;;;;;;20.20;8.90;;;;;;;-145.18;100.00;47623.50;6182059;23;20092;-69
2023/04/06 06:15:53;;;;;;;17.87;8.40;;;;;;;-145.18;100.00;47623.50;6182647;23;20072;-69
2023/04/06 06:18:19;;;;;;;17.70;8.53;;;;;;;-145.18;100.00;47603.97;6156644;23;20016;-69
2023/04/06 06:20:44;;;;;;;17.93;8.67;;;;;;;-145.18;100.00;47584.44;6183061;23;20009;-69
2023/04/06 06:23:10;;;;;;;18.87;8.60;;;;;;;-145.18;100.00;47537.53;6182681;23;20005;-69
2023/04/06 06:25:35;;;;;;;22.93;9.03;;;;;;;-145.18;100.00;47557.06;6183312;23;20037;-69
2023/04/06 06:28:01;;;;;;;19.40;9.07;;;;;;;-145.18;100.00;47613.75;6182360;23;20020;-69
2023/04/06 06:30:26;;;;;;;18.33;9.20;;;;;;;-145.18;100.00;47592.25;6182143;23;20047;-69
2023/04/06 06:32:52;;;;;;;23.57;10.00;;;;;;;-145.18;100.00;47609.84;6181130;23;20017;-69
2023/04/06 06:35:17;;;;;;;20.00;9.07;;;;;;;-145.18;100.00;47617.66;6182705;23;20084;-69
2023/04/06 06:37:43;;;;;;;22.80;9.57;;;;;;;-145.18;100.00;47592.25;6182360;23;20330;-69
2023/04/06 06:40:10;;;;;;;18.00;8.43;;;;;;;-145.18;100.00;47609.84;6182622;23;20442;-69
2023/04/06 06:42:35;;;;;;;24.43;9.63;;;;;;;-145.18;100.00;47609.84;6181951;23;20092;-69
2023/04/06 06:45:01;;;;;;;21.07;9.40;;;;;;;-145.18;100.00;47592.25;6181406;23;20273;-69
2023/04/06 06:47:26;;;;;;;20.37;8.90;;;;;;;-145.18;100.00;47603.97;6181690;23;20023;-69
2023/04/06 06:49:51;;;;;;;18.70;9.30;;;;;;;-145.18;100.00;47627.41;6182009;23;20013;-69
2023/04/06 06:52:17;;;;;;;19.70;9.03;;;;;;;-145.18;100.00;47617.66;6182520;23;20047;-69
2023/04/06 06:54:43;;;;;;;22.13;9.93;;;;;;;-145.18;100.00;47605.94;6182297;23;20028;-69
2023/04/06 06:57:08;;;;;;;23.33;9.20;;;;;;;-145.18;100.00;47611.78;6182042;23;20012;-69
2023/04/06 06:59:34;;;;;;;21.40;9.57;;;;;;;-145.18;100.00;47592.25;6182031;23;20238;-69
2023/04/06 07:01:59;;;;;;;18.80;8.93;;;;;;;-145.18;100.00;47609.84;6181986;23;20013;-69
2023/04/06 07:04:25;;;;;;;15.77;8.90;;;;;;;-145.18;100.00;47615.69;6182509;23;20339;-69
2023/04/06 07:06:50;;;;;;;19.10;8.90;;;;;;;-145.18;100.00;47611.78;6177080;23;20032;-69
2023/04/06 07:09:16;;;;;;;16.83;8.83;;;;;;;-145.18;100.00;47598.09;6182798;23;20037;-69
2023/04/06 07:11:42;;;;;;;23.37;9.93;;;;;;;-145.18;100.00;47602.00;6182022;23;20005;-69
2023/04/06 07:14:07;;;;;;;27.00;9.27;;;;;;;-145.18;100.00;47543.41;6181733;23;20104;-69
2023/04/06 07:16:32;;;;;;;17.87;8.83;;;;;;;-145.18;100.00;47488.69;6182470;23;20410;-69
2023/04/06 07:18:58;;;;;;;18.80;9.80;;;;;;;-145.18;100.00;47398.81;6181844;23;20092;-69
2023/04/06 07:21:23;;;;;;;17.60;9.03;;;;;;;-145.18;100.00;47406.63;6182272;23;20064;-69
2023/04/06 07:23:50;;;;;;;21.23;9.17;;;;;;;-145.18;100.00;47262.06;6181141;23;20063;-69
2023/04/06 07:26:16;;;;;;;23.07;10.47;;;;;;;-145.18;100.00;47033.50;6182108;23;20020;-69
2023/04/06 07:28:41;;;;;;;18.60;10.07;;;;;;;-145.18;100.00;47008.09;6182024;23;20231;-69
2023/04/06 07:31:06;;;;;;;21.33;9.93;;;;;;;-145.18;100.00;47060.84;6182103;23;20455;-69
2023/04/06 07:33:32;;;;;;;20.47;10.37;;;;;;;-145.18;100.00;47135.09;6181829;23;20118;-69
2023/04/06 07:35:58;;;;;;;21.23;9.70;;;;;;;-145.18;100.00;47316.78;6182246;23;20485;-69
2023/04/06 07:38:24;;;;;;;18.23;9.17;;;;;;;-145.18;100.00;47203.47;6181733;23;20446;-69
2023/04/06 07:40:49;;;;;;;24.37;10.40;;;;;;;-145.18;100.00;47422.28;6182248;23;20237;-69
2023/04/06 07:43:16;;;;;;;21.23;10.53;;;;;;;-145.18;100.00;47508.22;6182071;23;20092;-69
2023/04/06 07:45:41;;;;;;;20.07;10.27;;;;;;;-145.18;100.00;47518.00;6181886;23;20025;-69
2023/04/06 07:48:07;;;;;;;22.63;10.00;;;;;;;-145.18;100.00;47529.72;6181633;23;20238;-69
2023/04/06 07:50:32;;;;;;;20.73;10.30;;;;;;;-145.18;100.00;47549.25;6181869;23;20063;-69
2023/04/06 07:52:58;;;;;;;22.03;10.60;;;;;;;-145.18;100.00;47590.28;6181417;23;20017;-69
2023/04/06 07:55:23;;;;;;;19.80;10.07;;;;;;;-145.18;100.00;47598.09;6155803;23;20017;-69
2023/04/06 07:57:48;;;;;;;21.60;10.53;;;;;;;-145.18;100.00;47566.84;6181197;23;20401;-69
2023/04/06 08:00:14;;;;;;;22.80;10.13;;;;;;;-145.18;100.00;47561.00;6181700;23;20005;-69
2023/04/06 08:02:40;;;;;;;21.37;10.40;;;;;;;-145.18;100.00;47549.25;6175532;23;20024;-69
2023/04/06 08:05:06;;;;;;;25.00;10.33;;;;;;;-145.18;100.00;47576.63;6181586;23;20044;-69
2023/04/06 08:07:32;;;;;;;25.57;11.57;;;;;;;-145.18;100.00;47527.78;6181828;23;20028;-69
2023/04/06 08:09:57;;;;;;;20.90;11.07;;;;;;;-145.18;100.00;47519.97;6181495;23;20322;-69
2023/04/06 08:12:23;;;;;;;23.50;11.13;;;;;;;-145.18;100.00;47543.41;6181836;23;20009;-69
2023/04/06 08:14:48;;;;;;;24.57;10.50;;;;;;;-145.18;100.00;47519.97;6181092;23;20040;-69
2023/04/06 08:17:13;;;;;;;22.83;10.77;;;;;;;-145.18;100.00;47566.84;6182144;23;20040;-69
2023/04/06 08:19:39;;;;;;;21.73;11.17;;;;;;;-145.18;100.00;47562.94;6182007;23;20370;-69
2023/04/06 08:22:04;;;;;;;22.90;11.37;;;;;;;-145.18;100.00;47539.50;6181809;23;20036;-68
2023/04/06 08:24:32;;;;;;;23.77;10.47;;;;;;;-145.18;100.00;47547.31;6181799;23;20074;-69
2023/04/06 08:26:57;;;;;;;27.37;10.53;;;;;;;-145.18;100.00;47564.91;6183435;23;20008;-69
2023/04/06 08:29:23;;;;;;;24.33;11.00;;;;;;;-145.18;100.00;47555.13;6183818;23;20235;-69
2023/04/06 08:31:48;;;;;;;19.97;10.20;;;;;;;-145.18;100.00;47549.25;6183500;23;20017;-69
2023/04/06 08:34:14;;;;;;;27.27;11.07;;;;;;;-145.18;100.00;47547.31;6183558;23;20088;-69
2023/04/06 08:36:41;;;;;;;21.73;11.30;;;;;;;-145.18;100.00;47525.81;6183749;23;20095;-69
2023/04/06 08:39:06;;;;;;;25.17;11.47;;;;;;;-145.18;100.00;47568.81;6183394;23;20386;-69
2023/04/06 08:41:32;;;;;;;23.37;10.67;;;;;;;-145.18;100.00;47545.34;6183935;23;20231;-69
2023/04/06 08:44:02;;;;;;;25.00;11.70;;;;;;;-145.18;100.00;47527.78;6183818;23;20020;-69
2023/04/06 08:46:30;;;;;;;24.23;9.93;;;;;;;-145.18;100.00;47533.63;6183910;23;20180;-70
2023/04/06 08:49:00;;;;;;;21.07;10.17;;;;;;;-145.18;100.00;47406.63;6183141;23;20585;-69
2023/04/06 08:51:26;;;;;;;28.27;11.47;;;;;;;-145.18;100.00;47355.84;6184185;23;20295;-69
2023/04/06 08:53:55;;;;;;;22.90;10.80;;;;;;;-145.18;100.00;47217.13;6183018;23;20253;-69
2023/04/06 08:56:26;;;;;;;22.50;11.17;;;;;;;-145.18;100.00;47164.38;6183466;23;20732;-69
2023/04/06 08:58:52;;;;;;;25.73;11.10;;;;;;;-145.18;100.00;47035.44;6183204;23;20754;-69
2023/04/06 09:01:22;;;;;;;22.63;11.67;;;;;;;-145.18;100.00;46922.16;6183478;23;20227;-70
2023/04/06 09:03:50;;;;;;;26.87;11.53;;;;;;;-145.18;100.00;46922.16;6182906;23;20421;-69
2023/04/06 09:06:16;;;;;;;23.83;11.77;;;;;;;-145.18;100.00;46838.16;6183701;23;20231;-69
2023/04/06 09:08:41;;;;;;;24.30;11.33;;;;;;;-145.18;100.00;46804.94;6182851;23;20243;-69
2023/04/06 09:11:08;;;;;;;22.13;11.03;;;;;;;-145.18;100.00;46832.28;6183612;23;20013;-69
2023/04/06 09:13:52;;;;;;;21.97;11.63;;;;;;;-145.18;100.00;46836.19;6183105;23;20020;-69
2023/04/06 09:16:19;;;;;;;24.70;11.53;;;;;;;-145.18;100.00;46832.28;6183733;23;20239;-69
2023/04/06 09:18:45;;;;;;;25.00;10.90;;;;;;;-145.18;100.00;46779.56;6182886;23;20743;-69
2023/04/06 09:21:11;;;;;;;25.97;11.07;;;;;;;-145.18;100.00;46804.94;6183302;23;20230;-69
2023/04/06 09:23:37;;;;;;;20.73;9.77;;;;;;;-145.18;100.00;46812.75;6182985;23;20088;-69
2023/04/06 09:26:16;;;;;;;26.17;9.77;;;;;;;-145.18;100.00;46799.09;6183325;23;20015;-69
2023/04/06 09:28:48;;;;;;;20.27;10.77;;;;;;;-145.18;100.00;46769.78;6182797;23;20325;-70
2023/04/06 09:31:21;;;;;;;22.13;9.90;;;;;;;-145.18;100.00;46761.97;6183612;23;20239;-70
2023/04/06 09:33:47;;;;;;;22.00;9.80;;;;;;;-145.18;100.00;46732.66;6182983;23;20262;-70
2023/04/06 09:36:15;;;;;;;17.87;8.97;;;;;;;-145.18;100.00;46738.53;6183028;23;20576;-69
2023/04/06 09:38:53;;;;;;;17.00;8.83;;;;;;;-145.18;100.00;46738.53;6156564;23;20013;-69
2023/04/06 09:41:29;;;;;;;19.93;9.07;;;;;;;-145.18;100.00;46740.47;6183417;23;20218;-69
2023/04/06 09:44:08;;;;;;;15.87;8.83;;;;;;;-145.18;100.00;46697.50;6182602;23;20620;-70
2023/04/06 09:46:53;;;;;;;14.70;7.70;;;;;;;-145.18;100.00;46695.56;6183300;23;20258;-69
2023/04/06 09:49:19;;;;;;;12.83;7.30;;;;;;;-145.18;100.00;46648.69;6156933;23;20227;-70
2023/04/06 09:51:47;;;;;;;14.47;7.77;;;;;;;-145.18;100.00;46629.13;6183092;23;20242;-71
2023/04/06 09:54:17;;;;;;;15.13;7.90;;;;;;;-145.18;100.00;46617.41;6156733;23;20255;-71
2023/04/06 09:56:50;;;;;;;14.93;6.97;;;;;;;-145.18;100.00;46623.28;6182550;23;20310;-71
2023/04/06 09:59:30;;;;;;;13.60;6.57;;;;;;;-145.18;100.00;46611.56;6182886;23;20239;-71
2023/04/06 10:01:58;;;;;;;12.30;5.83;;;;;;;-145.18;100.00;46593.97;6182649;23;20231;-71
2023/04/06 10:04:29;;;;;;;16.10;6.10;;;;;;;-145.18;100.00;46593.97;6182715;23;20257;-71
2023/04/06 10:06:56;;;;;;;10.80;5.13;;;;;;;-145.18;100.00;46593.97;6183083;23;20231;-71
2023/04/06 10:09:27;;;;;;;9.23;5.37;;;;;;;-145.18;100.00;46580.31;6182137;23;20261;-71
2023/04/06 10:11:54;;;;;;;9.70;5.33;;;;;;;-145.18;100.00;46578.34;6182305;23;20235;-71
2023/04/06 10:14:20;;;;;;;9.33;5.00;;;;;;;-145.18;100.00;46582.25;6182588;23;20263;-71
2023/04/06 10:16:48;;;;;;;10.40;4.93;;;;;;;-145.18;100.00;46568.59;6182861;23;20313;-72
2023/04/06 10:19:27;;;;;;;12.73;4.60;;;;;;;-145.18;100.00;46578.34;6182761;23;20470;-71
2023/04/06 10:21:56;;;;;;;9.50;5.50;;;;;;;-145.18;100.00;46574.44;6182608;23;20302;-72
2023/04/06 10:24:22;;;;;;;12.10;5.30;;;;;;;-145.18;100.00;46568.59;6182511;23;20234;-71
2023/04/06 10:26:58;;;;;;;9.10;4.90;;;;;;;-145.18;100.00;46560.78;6182881;23;20227;-71
2023/04/06 10:29:24;;;;;;;8.07;4.60;;;;;;;-145.18;100.00;46556.88;6182770;23;20013;-71
2023/04/06 10:31:49;;;;;;;10.43;5.47;;;;;;;-145.18;100.00;46558.81;6182526;23;20745;-70
2023/04/06 10:34:15;;;;;;;9.50;4.53;;;;;;;-145.18;100.00;46543.19;6182472;23;20101;-70
2023/04/06 10:36:40;;;;;;;10.23;5.10;;;;;;;-145.18;100.00;46539.28;6183021;23;20008;-70
2023/04/06 10:39:06;;;;;;;12.83;5.67;;;;;;;-145.18;100.00;46543.19;6182246;23;20675;-70
2023/04/06 10:41:43;;;;;;;9.83;4.50;;;;;;;-145.18;100.00;46539.28;6182682;23;20005;-70
2023/04/06 10:44:17;;;;;;;10.10;4.97;;;;;;;-145.18;100.00;46539.28;6182008;23;20499;-71
2023/04/06 10:46:53;;;;;;;11.50;4.90;;;;;;;-145.18;100.00;46539.28;6182770;23;20227;-71
2023/04/06 10:49:19;;;;;;;11.10;4.80;;;;;;;-145.18;100.00;46547.09;6182264;23;20232;-70
2023/04/06 10:51:44;;;;;;;10.20;4.67;;;;;;;-145.18;100.00;46549.06;6182267;23;20398;-72
2023/04/06 10:54:11;;;;;;;10.53;5.20;;;;;;;-145.18;100.00;46560.78;6182025;23;20059;-72
2023/04/06 10:56:38;;;;;;;12.20;6.03;;;;;;;-145.18;100.00;46570.53;6182806;23;20066;-72
2023/04/06 10:59:05;;;;;;;10.83;5.63;;;;;;;-145.18;100.00;46611.56;6181977;23;20235;-72
2023/04/06 11:01:30;;;;;;;12.83;5.63;;;;;;;-145.18;100.00;46623.28;6181594;23;20236;-72
2023/04/06 11:04:00;;;;;;;8.80;4.30;;;;;;;-145.18;100.00;46615.47;6181865;23;20822;-72
2023/04/06 11:06:29;;;;;;;9.77;4.80;;;;;;;-145.18;100.00;46599.84;6182676;23;20001;-73
2023/04/06 11:08:55;;;;;;;9.90;5.60;;;;;;;-145.18;100.00;46609.59;6181845;23;20621;-73
2023/04/06 11:11:23;;;;;;;10.80;5.63;;;;;;;-145.18;100.00;46607.66;6183033;23;20238;-73
2023/04/06 11:13:52;;;;;;;10.67;5.67;;;;;;;-145.18;100.00;46603.75;6182209;23;20283;-72